Time;durP1;ratioP1;P1;durP2;ratioP2;P2;SDS_P1;SDS_P2;PMS_P1;PMS_P2;Temp;Humidity;BMP_temperature;BMP_pressure;BME280_temperature;BME280_humidity;BME280_pressure;Samples;Min_cycle;Max_cycle;Signal;HPM_P1;HPM_P2
2022/09/19 00:00:36;;;;;;;0.63;0.30;;;22.70;57.00;;;;;;4981162;28;20041;-18
2022/09/19 00:03:02;;;;;;;0.63;0.40;;;22.70;56.40;;;;;;4980987;28;20214;-19
2022/09/19 00:05:28;;;;;;;0.40;0.35;;;22.70;56.40;;;;;;4982176;28;20081;-19
2022/09/19 00:07:53;;;;;;;0.68;0.40;;;22.70;56.40;;;;;;4979800;28;20062;-19
2022/09/19 00:10:19;;;;;;;0.30;0.28;;;22.70;56.30;;;;;;4981383;28;20062;-18
2022/09/19 00:12:44;;;;;;;0.40;0.40;;;22.70;56.90;;;;;;4980091;28;20404;-19
2022/09/19 00:15:10;;;;;;;0.40;0.38;;;22.70;56.20;;;;;;4981646;28;20046;-19
2022/09/19 00:17:36;;;;;;;0.30;0.30;;;22.70;56.30;;;;;;4980750;28;20050;-18
2022/09/19 00:20:01;;;;;;;0.28;0.28;;;22.70;56.20;;;;;;4981984;28;20110;-19
2022/09/19 00:22:27;;;;;;;0.20;0.20;;;22.70;56.20;;;;;;4982387;28;20779;-18
2022/09/19 00:24:52;;;;;;;0.45;0.38;;;22.80;56.20;;;;;;4978252;28;20308;-19
2022/09/19 00:27:23;;;;;;;0.30;0.30;;;22.80;56.20;;;;;;4980817;28;20042;-19
2022/09/19 00:29:48;;;;;;;2.03;0.30;;;22.80;56.10;;;;;;4982874;28;20443;-23
2022/09/19 00:32:14;;;;;;;0.47;0.43;;;22.70;56.10;;;;;;4981620;28;20034;-18
2022/09/19 00:34:45;;;;;;;0.40;0.40;;;22.80;56.20;;;;;;4982111;28;20046;-19
2022/09/19 00:37:11;;;;;;;0.20;0.20;;;22.70;56.10;;;;;;4981406;28;20050;-28
2022/09/19 00:39:37;;;;;;;0.47;0.28;;;22.70;56.20;;;;;;4993640;28;20131;-19
2022/09/19 00:42:03;;;;;;;0.35;0.30;;;22.70;56.10;;;;;;4982553;28;20073;-18
2022/09/19 00:44:28;;;;;;;0.40;0.40;;;22.70;56.20;;;;;;4985132;28;20432;-19
2022/09/19 00:47:05;;;;;;;0.30;0.20;;;22.70;56.10;;;;;;4984658;28;20053;-19
2022/09/19 00:49:37;;;;;;;0.20;0.20;;;22.70;56.20;;;;;;4982622;28;20421;-19
2022/09/19 00:52:04;;;;;;;0.57;0.40;;;22.70;56.20;;;;;;4997809;28;20497;-18
2022/09/19 00:54:49;;;;;;;0.88;0.30;;;22.70;56.20;;;;;;4980142;28;20046;-19
2022/09/19 00:57:15;;;;;;;0.22;0.20;;;22.60;56.20;;;;;;4997568;28;20057;-19
2022/09/19 00:59:43;;;;;;;0.30;0.25;;;22.60;56.30;;;;;;4983689;28;20046;-19
2022/09/19 01:02:09;;;;;;;0.22;0.22;;;22.60;56.10;;;;;;4969910;28;20428;-19
2022/09/19 01:04:35;;;;;;;0.20;0.20;;;22.60;56.20;;;;;;4984169;28;20039;-23
2022/09/19 01:07:07;;;;;;;1.95;0.22;;;22.70;56.30;;;;;;4982210;28;20674;-19
2022/09/19 01:09:51;;;;;;;0.55;0.30;;;22.60;56.30;;;;;;4982361;28;20042;-18
2022/09/19 01:12:44;;;;;;;0.30;0.30;;;22.60;56.20;;;;;;4984103;28;20142;-19
2022/09/19 01:15:41;;;;;;;0.20;0.20;;;22.60;56.30;;;;;;4997893;28;20042;-19
2022/09/19 01:18:07;;;;;;;0.32;0.32;;;22.60;56.30;;;;;;4980632;28;20531;-19
2022/09/19 01:20:56;;;;;;;0.60;0.40;;;22.60;56.30;;;;;;4982725;28;20035;-19
2022/09/19 01:23:49;;;;;;;0.10;0.10;;;22.60;56.40;;;;;;4965624;28;20053;-19
2022/09/19 01:26:43;;;;;;;0.60;0.20;;;22.60;56.40;;;;;;4997860;28;20127;-19
2022/09/19 01:29:20;;;;;;;0.30;0.30;;;22.60;56.40;;;;;;4982036;28;20054;-19
2022/09/19 01:31:47;;;;;;;0.30;0.30;;;22.50;56.40;;;;;;4983343;28;20039;-20
2022/09/19 01:34:40;;;;;;;0.25;0.20;;;22.60;56.40;;;;;;4982041;28;20459;-19
2022/09/19 01:37:27;;;;;;;0.50;0.35;;;22.60;56.40;;;;;;4983442;28;20125;-19
2022/09/19 01:39:53;;;;;;;0.43;0.43;;;22.50;56.50;;;;;;4964385;28;21715;-18
2022/09/19 01:42:19;;;;;;;0.40;0.30;;;22.50;56.50;;;;;;4982767;28;20047;-19
2022/09/19 01:44:45;;;;;;;0.20;0.20;;;22.50;56.50;;;;;;4983379;28;20065;-18
2022/09/19 01:47:29;;;;;;;0.20;0.13;;;22.50;56.50;;;;;;4985353;28;20038;-19
2022/09/19 01:50:09;;;;;;;0.20;0.10;;;22.50;56.60;;;;;;4982530;28;20038;-25
2022/09/19 01:52:58;;;;;;;0.15;0.15;;;22.50;56.50;;;;;;4982402;28;21085;-19
2022/09/19 01:55:30;;;;;;;0.15;0.15;;;22.50;56.60;;;;;;4996312;28;20526;-23
2022/09/19 01:58:17;;;;;;;0.20;0.20;;;22.40;56.50;;;;;;4982294;28;20049;-19
2022/09/19 02:00:56;;;;;;;0.20;0.20;;;22.50;56.60;;;;;;4997245;28;20050;-19
2022/09/19 02:04:01;;;;;;;0.20;0.20;;;22.50;56.60;;;;;;4996820;28;20050;-19
2022/09/19 02:06:42;;;;;;;0.10;0.10;;;22.50;56.60;;;;;;4991250;28;20536;-19
2022/09/19 02:09:25;;;;;;;0.10;0.10;;;22.40;56.70;;;;;;4993374;28;20043;-19
2022/09/19 02:11:52;;;;;;;0.20;0.20;;;22.40;56.70;;;;;;4981533;28;20050;-19
2022/09/19 02:14:18;;;;;;;0.30;0.30;;;22.40;56.80;;;;;;4981979;28;20455;-18
2022/09/19 02:16:47;;;;;;;0.15;0.10;;;22.40;56.70;;;;;;4984383;28;20050;-20
2022/09/19 02:19:21;;;;;;;0.20;0.20;;;22.40;56.70;;;;;;4982157;28;20066;-19
2022/09/19 02:21:53;;;;;;;0.20;0.20;;;22.40;56.80;;;;;;4997307;28;20402;-19
2022/09/19 02:24:22;;;;;;;0.10;0.10;;;22.40;56.80;;;;;;4980318;28;20042;-18
2022/09/19 02:26:51;;;;;;;0.98;0.10;;;22.40;56.70;;;;;;4983949;28;20047;-18
2022/09/19 02:29:19;;;;;;;0.20;0.10;;;22.40;57.40;;;;;;4982143;28;20402;-19
2022/09/19 02:31:46;;;;;;;0.35;0.10;;;22.40;56.90;;;;;;4985284;28;20038;-19
2022/09/19 02:34:11;;;;;;;1.23;0.40;;;22.40;56.80;;;;;;4979466;28;20062;-18
2022/09/19 02:36:46;;;;;;;0.20;0.13;;;22.30;56.80;;;;;;4999815;28;20042;-18
2022/09/19 02:39:19;;;;;;;0.20;0.20;;;22.30;56.80;;;;;;4981727;28;20061;-19
2022/09/19 02:41:49;;;;;;;1.08;0.10;;;22.30;56.80;;;;;;4993366;28;20068;-19
2022/09/19 02:44:30;;;;;;;0.10;0.10;;;22.30;56.80;;;;;;4981170;28;20035;-19
2022/09/19 02:47:11;;;;;;;0.38;0.30;;;22.30;56.80;;;;;;4995979;28;20081;-19
2022/09/19 02:49:52;;;;;;;0.20;0.20;;;22.30;56.90;;;;;;4983934;28;20421;-19
2022/09/19 02:52:23;;;;;;;0.20;0.20;;;22.30;56.80;;;;;;4979784;28;20043;-19
2022/09/19 02:54:51;;;;;;;0.10;0.10;;;22.30;56.80;;;;;;4981964;28;20049;-18
2022/09/19 02:57:18;;;;;;;0.10;0.10;;;22.30;56.90;;;;;;4995757;28;20398;-19
2022/09/19 02:59:46;;;;;;;0.32;0.15;;;22.30;56.90;;;;;;4966643;28;20058;-18
2022/09/19 03:02:16;;;;;;;0.30;0.20;;;22.30;56.90;;;;;;4964499;28;20046;-19
2022/09/19 03:04:44;;;;;;;0.50;0.10;;;22.30;56.80;;;;;;4964935;28;20080;-18
2022/09/19 03:07:15;;;;;;;0.20;0.20;;;22.30;57.00;;;;;;4983586;28;20459;-18
2022/09/19 03:09:47;;;;;;;0.15;0.15;;;22.30;57.00;;;;;;4994002;28;20047;-19
2022/09/19 03:12:22;;;;;;;0.20;0.20;;;22.20;57.00;;;;;;4979770;28;20501;-18
2022/09/19 03:14:49;;;;;;;0.13;0.13;;;22.20;56.90;;;;;;4966064;28;20882;-18
2022/09/19 03:17:16;;;;;;;0.10;0.10;;;22.30;57.00;;;;;;4978437;28;20051;-19
2022/09/19 03:19:47;;;;;;;0.20;0.20;;;22.20;56.90;;;;;;4998639;28;20058;-19
2022/09/19 03:22:13;;;;;;;2.22;0.20;;;22.20;57.00;;;;;;4980527;28;20136;-19
2022/09/19 03:24:39;;;;;;;0.20;0.20;;;22.20;57.00;;;;;;4983033;28;20046;-22
2022/09/19 03:27:04;;;;;;;0.10;0.10;;;22.20;57.00;;;;;;4982450;28;20045;-18
2022/09/19 03:29:30;;;;;;;0.10;0.10;;;22.20;57.00;;;;;;4982411;28;20038;-19
2022/09/19 03:31:56;;;;;;;0.20;0.20;;;22.20;57.00;;;;;;4981813;28;20719;-20
2022/09/19 03:34:22;;;;;;;0.20;0.20;;;22.20;57.00;;;;;;4983313;28;20046;-18
2022/09/19 03:36:47;;;;;;;1.50;0.20;;;22.20;57.10;;;;;;4982256;28;20038;-19
2022/09/19 03:39:13;;;;;;;0.20;0.20;;;22.20;57.00;;;;;;4982197;28;20050;-19
2022/09/19 03:41:39;;;;;;;0.22;0.20;;;22.20;57.00;;;;;;4982452;28;20081;-22
2022/09/19 03:44:04;;;;;;;0.20;0.20;;;22.20;57.20;;;;;;4980113;28;20095;-19
2022/09/19 03:46:30;;;;;;;0.30;0.30;;;22.20;57.10;;;;;;4984305;28;20083;-19
2022/09/19 03:48:56;;;;;;;0.10;0.10;;;22.20;57.00;;;;;;4981022;28;20561;-20
2022/09/19 03:51:22;;;;;;;0.30;0.20;;;22.20;57.20;;;;;;4982786;28;20055;-19
2022/09/19 03:53:47;;;;;;;0.20;0.20;;;22.20;57.00;;;;;;4981425;28;20027;-20
2022/09/19 03:56:13;;;;;;;0.20;0.20;;;22.20;57.00;;;;;;4982652;28;20284;-18
2022/09/19 03:58:39;;;;;;;0.20;0.20;;;22.20;57.10;;;;;;4980313;28;20180;-19
2022/09/19 04:01:06;;;;;;;0.30;0.30;;;22.20;57.20;;;;;;4983278;28;20073;-19
2022/09/19 04:03:33;;;;;;;0.10;0.10;;;22.20;57.20;;;;;;4981067;28;20138;-18
2022/09/19 04:05:59;;;;;;;0.10;0.10;;;22.10;57.00;;;;;;4982774;28;20046;-19
2022/09/19 04:08:25;;;;;;;0.05;0.05;;;22.20;57.20;;;;;;4980401;28;20485;-18
2022/09/19 04:10:51;;;;;;;0.40;0.20;;;22.10;57.10;;;;;;4982953;28;20039;-19
2022/09/19 04:13:16;;;;;;;0.10;0.10;;;22.10;57.20;;;;;;4980434;28;20544;-18
2022/09/19 04:15:42;;;;;;;0.10;0.10;;;22.10;57.10;;;;;;4983203;28;20047;-18
2022/09/19 04:18:08;;;;;;;0.20;0.10;;;22.10;57.10;;;;;;4981928;28;20156;-18
2022/09/19 04:20:33;;;;;;;0.10;0.10;;;22.10;57.10;;;;;;4986318;28;20129;-19
2022/09/19 04:23:00;;;;;;;1.40;0.20;;;22.10;57.10;;;;;;4981732;28;20095;-19
2022/09/19 04:25:34;;;;;;;0.10;0.10;;;22.10;57.10;;;;;;4986786;28;20057;-19
2022/09/19 04:28:02;;;;;;;;;;;22.10;57.00;;;;;;4986080;28;20409;-19
2022/09/19 04:30:27;;;;;;;0.10;0.10;;;22.10;57.10;;;;;;4983992;28;19918;-18
2022/09/19 04:32:53;;;;;;;0.10;0.10;;;22.10;57.30;;;;;;4983629;28;20095;-19
2022/09/19 04:35:20;;;;;;;0.20;0.17;;;22.10;57.30;;;;;;4988604;28;20414;-18
2022/09/19 04:37:45;;;;;;;0.17;0.15;;;22.10;57.20;;;;;;4984787;28;20056;-19
2022/09/19 04:40:11;;;;;;;0.32;0.13;;;22.10;57.30;;;;;;4984522;28;20046;-18
2022/09/19 04:42:37;;;;;;;0.10;0.10;;;22.10;57.40;;;;;;4983436;28;20070;-18
2022/09/19 04:45:03;;;;;;;0.20;0.20;;;22.00;57.40;;;;;;4985498;28;20096;-19
2022/09/19 04:47:32;;;;;;;0.30;0.00;;;22.10;57.30;;;;;;4983324;28;20046;-18
2022/09/19 04:49:57;;;;;;;0.20;0.10;;;22.00;57.40;;;;;;4986231;28;20043;-19
2022/09/19 04:52:26;;;;;;;0.17;0.15;;;22.10;57.40;;;;;;4984253;28;20196;-19
2022/09/19 04:54:54;;;;;;;0.10;0.10;;;22.00;57.30;;;;;;4985281;28;20053;-19
2022/09/19 04:57:20;;;;;;;0.32;0.10;;;22.00;57.40;;;;;;4981471;28;20061;-19
2022/09/19 04:59:45;;;;;;;1.45;0.10;;;22.00;57.40;;;;;;4984045;28;20076;-18
2022/09/19 05:02:11;;;;;;;0.10;0.10;;;22.00;57.40;;;;;;4634092;28;9999867;-19
2022/09/19 05:04:38;;;;;;;0.10;0.10;;;22.10;57.30;;;;;;4975788;28;20107;-18
2022/09/19 05:07:04;;;;;;;0.08;0.08;;;22.00;57.60;;;;;;4980908;28;20039;-19
2022/09/19 05:09:29;;;;;;;0.10;0.10;;;22.00;57.70;;;;;;4979191;28;20050;-19
2022/09/19 05:11:56;;;;;;;1.38;0.10;;;22.00;57.60;;;;;;4981584;28;20057;-18
2022/09/19 05:14:23;;;;;;;0.00;0.00;;;22.00;57.70;;;;;;4978779;28;20074;-19
2022/09/19 05:16:50;;;;;;;0.20;0.20;;;22.00;58.20;;;;;;4981977;28;20054;-19
2022/09/19 05:19:16;;;;;;;0.20;0.20;;;22.00;57.60;;;;;;4979743;28;20129;-18
2022/09/19 05:21:44;;;;;;;0.10;0.10;;;22.00;57.60;;;;;;4980766;28;20552;-19
2022/09/19 05:24:10;;;;;;;0.17;0.15;;;22.00;57.50;;;;;;4973349;28;20046;-41
2022/09/19 05:26:37;;;;;;;0.88;0.20;;;22.00;57.20;;;;;;4980434;28;20058;-41
2022/09/19 05:29:04;;;;;;;0.20;0.20;;;22.00;57.40;;;;;;4990382;28;20041;-43
2022/09/19 05:31:30;;;;;;;0.17;0.17;;;22.00;57.30;;;;;;4978927;28;20057;-42
2022/09/19 05:33:56;;;;;;;0.20;0.20;;;22.10;57.20;;;;;;4980188;28;20045;-42
2022/09/19 05:36:22;;;;;;;0.30;0.17;;;22.00;57.20;;;;;;4980191;28;20057;-39
2022/09/19 05:38:48;;;;;;;3.72;0.25;;;22.00;57.10;;;;;;4976854;28;20560;-37
2022/09/19 05:41:14;;;;;;;0.15;0.15;;;22.00;57.10;;;;;;4980638;28;20050;-42
2022/09/19 05:43:39;;;;;;;0.10;0.08;;;22.00;57.50;;;;;;4977986;28;20034;-41
2022/09/19 05:46:05;;;;;;;0.10;0.10;;;22.00;57.10;;;;;;4983731;28;20550;-43
2022/09/19 05:48:30;;;;;;;0.22;0.20;;;22.00;57.00;;;;;;4979239;28;20037;-42
2022/09/19 05:50:56;;;;;;;0.15;0.10;;;22.00;57.00;;;;;;4980985;28;20027;-43
2022/09/19 05:56:06;;;;;;;;;;;22.10;56.90;;;;;;4979775;28;20420;-42
2022/09/19 05:58:35;;;;;;;0.90;0.10;;;22.00;56.80;;;;;;4982451;28;19930;-38
2022/09/19 06:01:05;;;;;;;0.10;0.10;;;22.00;57.50;;;;;;4980200;28;20038;-37
2022/09/19 06:03:32;;;;;;;0.20;0.10;;;22.00;57.20;;;;;;5003831;28;20507;-39
2022/09/19 06:05:57;;;;;;;0.10;0.10;;;22.00;56.90;;;;;;4981045;28;20495;-40
2022/09/19 06:08:24;;;;;;;0.20;0.20;;;22.00;57.00;;;;;;4979795;28;20080;-43
2022/09/19 06:10:49;;;;;;;0.10;0.10;;;22.00;56.90;;;;;;4980559;28;20046;-41
2022/09/19 06:13:17;;;;;;;0.20;0.10;;;22.00;57.10;;;;;;4976649;28;20053;-42
2022/09/19 06:15:42;;;;;;;0.20;0.20;;;22.00;56.90;;;;;;4975889;28;20057;-43
2022/09/19 06:18:11;;;;;;;0.10;0.10;;;22.00;57.00;;;;;;4975485;28;20050;-40
2022/09/19 06:20:40;;;;;;;0.10;0.10;;;21.90;57.00;;;;;;4985782;28;20115;-41
2022/09/19 06:23:06;;;;;;;0.15;0.15;;;22.00;56.90;;;;;;4981339;28;20044;-41
2022/09/19 06:25:32;;;;;;;0.10;0.10;;;22.00;57.60;;;;;;4982702;28;20049;-39
2022/09/19 06:27:59;;;;;;;0.17;0.17;;;22.00;57.20;;;;;;4983145;28;20148;-36
2022/09/19 06:30:25;;;;;;;0.10;0.10;;;22.00;57.10;;;;;;4980584;28;20082;-37
2022/09/19 06:32:51;;;;;;;0.32;0.20;;;22.10;57.30;;;;;;4979381;28;20050;-37
2022/09/19 06:35:20;;;;;;;0.60;0.38;;;22.10;57.60;;;;;;4983610;28;20054;-36
2022/09/19 06:37:47;;;;;;;0.20;0.20;;;22.10;57.40;;;;;;4983434;28;20072;-37
2022/09/19 06:40:13;;;;;;;2.15;0.20;;;22.10;57.10;;;;;;4982775;28;20077;-37
2022/09/19 06:42:38;;;;;;;0.28;0.28;;;22.10;57.20;;;;;;4983300;28;20072;-36
2022/09/19 06:45:07;;;;;;;0.57;0.20;;;22.10;57.30;;;;;;4982700;28;20073;-36
2022/09/19 06:47:33;;;;;;;0.20;0.20;;;22.10;57.10;;;;;;4982717;28;20068;-34
2022/09/19 06:50:02;;;;;;;0.10;0.10;;;22.10;57.30;;;;;;4984403;28;20046;-37
2022/09/19 06:52:27;;;;;;;0.52;0.20;;;22.10;57.40;;;;;;4980928;28;20402;-37
2022/09/19 06:54:53;;;;;;;0.40;0.20;;;22.10;57.50;;;;;;4984678;28;20041;-37
2022/09/19 06:57:19;;;;;;;0.20;0.17;;;22.10;57.50;;;;;;4983736;28;20088;-36
2022/09/19 06:59:44;;;;;;;0.20;0.20;;;22.10;58.20;;;;;;4983580;28;20062;-36
2022/09/19 07:02:10;;;;;;;1.75;0.30;;;22.10;57.60;;;;;;4984495;28;20054;-37
2022/09/19 07:04:36;;;;;;;1.10;0.20;;;22.10;58.30;;;;;;4984148;28;20109;-38
2022/09/19 07:07:02;;;;;;;0.93;0.20;;;22.10;57.70;;;;;;4984920;28;20046;-36
2022/09/19 07:09:27;;;;;;;0.90;0.10;;;22.10;57.70;;;;;;4980849;28;20085;-38
2022/09/19 07:11:56;;;;;;;0.77;0.30;;;22.10;57.70;;;;;;4984980;28;20121;-36
2022/09/19 07:14:22;;;;;;;1.00;0.22;;;22.10;57.70;;;;;;4981766;28;20099;-39
2022/09/19 07:16:48;;;;;;;0.88;0.28;;;22.10;57.70;;;;;;4985602;28;20046;-35
2022/09/19 07:19:13;;;;;;;0.13;0.10;;;22.10;57.70;;;;;;4982620;28;20145;-34
2022/09/19 07:21:39;;;;;;;0.10;0.10;;;22.10;57.70;;;;;;4984160;28;20068;-34
2022/09/19 07:24:06;;;;;;;0.20;0.13;;;22.10;57.70;;;;;;4982057;28;20093;-37
2022/09/19 07:26:31;;;;;;;0.43;0.10;;;22.10;57.60;;;;;;4983376;28;20061;-37
2022/09/19 07:28:57;;;;;;;1.70;0.50;;;22.10;57.60;;;;;;4983991;28;20133;-37
2022/09/19 07:31:23;;;;;;;0.22;0.20;;;22.10;57.60;;;;;;4983373;28;20179;-35
2022/09/19 07:33:48;;;;;;;0.30;0.15;;;22.10;57.60;;;;;;4999462;28;20084;-38
2022/09/19 07:36:14;;;;;;;0.70;0.40;;;22.20;57.50;;;;;;4985147;28;20121;-39
2022/09/19 07:38:39;;;;;;;1.13;0.22;;;22.20;57.50;;;;;;4982599;28;20057;-36
2022/09/19 07:41:05;;;;;;;0.52;0.20;;;22.20;57.50;;;;;;4984691;28;20060;-35
2022/09/19 07:43:31;;;;;;;0.40;0.10;;;22.20;57.40;;;;;;4981090;28;20042;-37
2022/09/19 07:45:57;;;;;;;0.32;0.20;;;22.20;57.40;;;;;;4983596;28;20034;-37
2022/09/19 07:48:22;;;;;;;0.35;0.30;;;22.20;57.50;;;;;;4980797;28;20524;-38
2022/09/19 07:50:48;;;;;;;0.63;0.17;;;22.20;57.30;;;;;;4984708;28;20113;-37
2022/09/19 07:53:18;;;;;;;0.20;0.20;;;22.20;57.30;;;;;;4983715;28;20509;-38
2022/09/19 07:55:51;;;;;;;0.10;0.10;;;22.20;57.40;;;;;;4988126;28;20042;-36
2022/09/19 07:58:17;;;;;;;0.22;0.13;;;22.10;57.40;;;;;;4985795;28;20128;-39
2022/09/19 08:00:45;;;;;;;0.20;0.10;;;22.10;57.60;;;;;;4986469;28;20436;-36
2022/09/19 08:03:12;;;;;;;0.60;0.10;;;22.10;57.60;;;;;;4985388;28;20038;-20
2022/09/19 08:05:39;;;;;;;0.10;0.10;;;22.10;57.60;;;;;;4986319;28;20171;-37
2022/09/19 08:08:06;;;;;;;0.10;0.10;;;22.00;57.60;;;;;;4986086;28;20061;-36
2022/09/19 08:10:32;;;;;;;0.70;0.40;;;22.00;57.70;;;;;;4986097;28;20145;-37
2022/09/19 08:13:02;;;;;;;0.55;0.22;;;21.90;57.90;;;;;;4984261;28;20137;-36
2022/09/19 08:15:28;;;;;;;0.40;0.20;;;21.90;58.00;;;;;;4984923;28;20038;-38
2022/09/19 08:17:58;;;;;;;0.05;0.05;;;21.90;58.10;;;;;;4985744;28;20505;-37
2022/09/19 08:20:31;;;;;;;0.38;0.20;;;21.90;58.10;;;;;;4986629;28;20057;-37
2022/09/19 08:23:01;;;;;;;0.10;0.10;;;21.90;58.10;;;;;;4984885;28;20529;-37
2022/09/19 08:25:27;;;;;;;0.10;0.10;;;21.90;58.10;;;;;;4986594;28;20129;-37
2022/09/19 08:27:55;;;;;;;0.30;0.20;;;21.90;58.10;;;;;;4986645;28;20042;-37
2022/09/19 08:30:21;;;;;;;0.10;0.10;;;21.90;58.10;;;;;;4985293;28;20069;-36
2022/09/19 08:32:47;;;;;;;0.15;0.10;;;21.90;58.10;;;;;;4985323;28;20042;-35
2022/09/19 08:35:15;;;;;;;0.35;0.10;;;22.00;58.10;;;;;;4991344;28;20038;-24
2022/09/19 08:37:41;;;;;;;0.20;0.10;;;21.90;58.00;;;;;;4985843;28;20046;-33
2022/09/19 08:40:18;;;;;;;0.80;0.20;;;22.00;58.00;;;;;;4986081;28;20049;-37
2022/09/19 08:43:27;;;;;;;0.20;0.20;;;22.00;58.10;;;;;;4968217;28;20073;-36
2022/09/19 08:46:13;;;;;;;0.10;0.10;;;21.90;58.00;;;;;;5000329;28;20061;-35
2022/09/19 08:48:55;;;;;;;0.03;0.00;;;22.00;57.90;;;;;;4982368;28;20077;-34
2022/09/19 08:51:48;;;;;;;0.15;0.10;;;22.10;57.70;;;;;;4984541;28;20045;-37
2022/09/19 08:54:33;;;;;;;0.10;0.10;;;22.10;57.60;;;;;;4983174;28;20103;-24
2022/09/19 08:57:00;;;;;;;0.20;0.10;;;22.10;57.60;;;;;;4969710;28;20521;-37
2022/09/19 08:59:29;;;;;;;0.13;0.08;;;22.20;57.50;;;;;;4981112;28;20050;-36
2022/09/19 09:01:58;;;;;;;0.32;0.10;;;22.10;57.60;;;;;;4986153;28;20499;-36
2022/09/19 09:04:30;;;;;;;0.00;0.00;;;22.10;57.60;;;;;;4964358;28;20054;-34
2022/09/19 09:07:33;;;;;;;0.00;0.00;;;22.10;57.60;;;;;;4981382;28;20720;-37
2022/09/19 09:10:25;;;;;;;0.10;0.10;;;22.10;57.60;;;;;;4985391;28;20034;-33
2022/09/19 09:13:04;;;;;;;0.28;0.10;;;22.10;57.70;;;;;;4984105;28;20042;-35
2022/09/19 09:15:39;;;;;;;0.08;0.08;;;22.10;57.60;;;;;;4984682;28;20050;-37
2022/09/19 09:18:33;;;;;;;0.10;0.05;;;22.10;57.60;;;;;;4984874;28;20058;-33
2022/09/19 09:21:04;;;;;;;0.10;0.10;;;22.10;57.60;;;;;;4983802;28;20566;-38
2022/09/19 09:23:35;;;;;;;0.10;0.10;;;22.20;57.60;;;;;;4984295;28;21775;-37
2022/09/19 09:26:14;;;;;;;0.20;0.20;;;22.20;57.50;;;;;;4986631;28;20106;-36
2022/09/19 09:28:49;;;;;;;0.15;0.00;;;22.20;57.50;;;;;;4984421;28;20051;-35
2022/09/19 09:31:25;;;;;;;0.40;0.05;;;22.20;57.50;;;;;;4983185;28;20066;-37
2022/09/19 09:34:10;;;;;;;0.10;0.10;;;22.20;57.50;;;;;;4982111;28;20092;-34
2022/09/19 09:36:42;;;;;;;0.20;0.10;;;22.20;57.60;;;;;;4982956;28;20069;-35
2022/09/19 09:39:21;;;;;;;0.10;0.10;;;22.20;57.50;;;;;;4981838;28;20586;-35
2022/09/19 09:41:56;;;;;;;0.10;0.10;;;22.20;57.60;;;;;;5000359;28;20065;-36
2022/09/19 09:44:52;;;;;;;0.10;0.03;;;22.30;57.60;;;;;;4982643;28;20421;-37
2022/09/19 09:47:50;;;;;;;0.10;0.05;;;22.30;57.70;;;;;;4984236;28;20515;-31
2022/09/19 09:50:34;;;;;;;0.10;0.10;;;22.30;57.60;;;;;;5007899;28;20035;-41
2022/09/19 09:53:22;;;;;;;0.10;0.10;;;22.30;57.60;;;;;;4997429;28;20046;-37
2022/09/19 09:56:15;;;;;;;0.20;0.10;;;22.30;57.50;;;;;;4985106;28;20113;-36
2022/09/19 09:59:10;;;;;;;0.35;0.20;;;22.30;57.60;;;;;;4983632;28;20116;-34
2022/09/19 10:04:52;;;;;;;0.20;0.20;;;22.40;57.60;;;;;;4981607;28;20077;-36
2022/09/19 10:07:30;;;;;;;1.13;0.20;;;22.40;57.60;;;;;;4984048;28;20046;-36
2022/09/19 10:10:01;;;;;;;0.10;0.10;;;22.40;57.50;;;;;;4980865;28;20069;-35
2022/09/19 10:12:32;;;;;;;0.00;0.00;;;22.40;57.50;;;;;;4982979;28;20058;-33
2022/09/19 10:15:00;;;;;;;0.50;0.05;;;22.40;57.50;;;;;;4984781;28;20179;-37
2022/09/19 10:17:26;;;;;;;0.20;0.20;;;22.40;57.40;;;;;;4981362;28;20042;-32
2022/09/19 10:20:00;;;;;;;0.13;0.10;;;22.50;57.50;;;;;;4999724;28;20065;-36
2022/09/19 10:22:25;;;;;;;0.00;0.00;;;22.50;57.50;;;;;;4982567;28;20045;-33
2022/09/19 10:24:55;;;;;;;0.10;0.10;;;22.50;57.50;;;;;;4985274;28;20417;-42
2022/09/19 10:27:33;;;;;;;0.05;0.05;;;22.50;57.30;;;;;;4984228;28;20519;-32
2022/09/19 10:30:04;;;;;;;0.10;0.10;;;22.50;57.30;;;;;;4983598;28;20034;-37
2022/09/19 10:32:37;;;;;;;0.17;0.10;;;22.50;57.30;;;;;;4983119;28;20057;-36
2022/09/19 10:35:27;;;;;;;0.00;0.00;;;22.50;57.40;;;;;;4984912;28;20065;-34
2022/09/19 10:38:12;;;;;;;0.10;0.00;;;22.50;57.40;;;;;;4979827;28;20047;-36
2022/09/19 10:40:39;;;;;;;0.10;0.10;;;22.50;57.30;;;;;;4984630;28;20109;-36
2022/09/19 10:43:05;;;;;;;0.10;0.10;;;22.60;57.30;;;;;;4981489;28;20045;-40
2022/09/19 10:45:33;;;;;;;0.10;0.10;;;22.60;57.30;;;;;;4633356;28;10000252;-40
2022/09/19 10:48:20;;;;;;;0.15;0.15;;;22.60;57.30;;;;;;4993991;28;20046;-36
2022/09/19 10:50:48;;;;;;;0.10;0.10;;;22.60;57.20;;;;;;4988544;28;20077;-37
2022/09/19 10:53:27;;;;;;;0.30;0.15;;;22.60;57.20;;;;;;4974658;28;20578;-35
2022/09/19 10:55:53;;;;;;;0.65;0.10;;;22.60;57.10;;;;;;4995733;28;20049;-34
2022/09/19 10:58:26;;;;;;;0.90;0.13;;;22.70;57.10;;;;;;4975778;28;20046;-34
2022/09/19 11:00:52;;;;;;;0.00;0.00;;;22.60;57.00;;;;;;4969143;28;20118;-38
2022/09/19 11:03:23;;;;;;;0.10;0.10;;;22.70;57.00;;;;;;4977256;28;20041;-35
2022/09/19 11:06:16;;;;;;;1.20;0.13;;;22.70;56.80;;;;;;4974464;28;20058;-33
2022/09/19 11:08:52;;;;;;;0.90;0.20;;;22.70;56.70;;;;;;4973463;28;20042;-34
2022/09/19 11:11:37;;;;;;;0.10;0.10;;;22.70;56.70;;;;;;4978660;28;20056;-35
2022/09/19 11:14:28;;;;;;;0.25;0.20;;;22.70;56.50;;;;;;4977250;28;20042;-32
2022/09/19 11:17:19;;;;;;;0.20;0.20;;;22.70;57.10;;;;;;4994330;28;20050;-36
2022/09/19 11:20:03;;;;;;;0.20;0.20;;;22.70;56.50;;;;;;4979472;28;20054;-42
2022/09/19 11:22:29;;;;;;;;;;;22.70;56.30;;;;;;4978355;28;20141;-33
2022/09/19 11:25:13;;;;;;;0.22;0.20;;;22.70;56.20;;;;;;4973849;28;20219;-33
2022/09/19 11:27:43;;;;;;;0.20;0.20;;;22.70;56.20;;;;;;4974325;28;20043;-37
2022/09/19 11:30:45;;;;;;;0.10;0.10;;;22.70;56.10;;;;;;4977253;28;20837;-41
2022/09/19 11:33:19;;;;;;;1.52;0.20;;;22.80;56.20;;;;;;4976617;28;20139;-36
2022/09/19 11:35:54;;;;;;;;;;;22.80;56.10;;;;;;4971166;28;20123;-37
2022/09/19 11:38:32;;;;;;;0.20;0.15;;;22.70;56.00;;;;;;4973356;28;19930;-34
2022/09/19 11:41:24;;;;;;;0.13;0.10;;;22.80;56.00;;;;;;4993094;28;20081;-34
2022/09/19 11:44:07;;;;;;;0.68;0.30;;;22.80;55.90;;;;;;4976008;28;20050;-34
2022/09/19 11:47:03;;;;;;;0.43;0.13;;;22.80;55.80;;;;;;4976939;28;20506;-34
2022/09/19 11:49:57;;;;;;;0.85;0.10;;;22.80;55.70;;;;;;4922788;28;20032;-35
2022/09/19 11:52:34;;;;;;;0.20;0.20;;;22.80;55.60;;;;;;4917750;28;20951;-34
2022/09/19 11:55:12;;;;;;;0.28;0.28;;;22.80;55.70;;;;;;4916126;28;20142;-36
2022/09/19 11:57:57;;;;;;;0.40;0.20;;;22.80;55.60;;;;;;4914955;28;20040;-35
2022/09/19 12:00:26;;;;;;;0.15;0.15;;;22.80;55.60;;;;;;4918638;28;20051;-35
2022/09/19 12:02:58;;;;;;;0.30;0.20;;;22.80;55.50;;;;;;4920144;28;20079;-33
2022/09/19 12:05:53;;;;;;;0.80;0.20;;;22.80;55.40;;;;;;4929504;28;20044;-37
2022/09/19 12:08:26;;;;;;;0.30;0.20;;;22.90;55.10;;;;;;4929153;28;20047;-33
2022/09/19 12:11:08;;;;;;;0.13;0.10;;;22.90;55.10;;;;;;4913760;28;20035;-35
2022/09/19 12:13:42;;;;;;;0.20;0.20;;;22.90;55.30;;;;;;4925028;28;20046;-32
2022/09/19 12:16:10;;;;;;;0.40;0.13;;;22.90;55.30;;;;;;4932110;28;20031;-31
2022/09/19 12:18:50;;;;;;;0.38;0.20;;;22.90;55.30;;;;;;4911002;28;20567;-34
2022/09/19 12:21:16;;;;;;;0.20;0.20;;;22.90;55.50;;;;;;4926122;28;20032;-35
2022/09/19 12:26:33;;;;;;;0.17;0.17;;;23.00;55.70;;;;;;4958558;28;20037;-36
2022/09/19 12:29:19;;;;;;;1.63;0.20;;;23.00;55.60;;;;;;4981631;28;20060;-36
2022/09/19 12:31:50;;;;;;;0.10;0.10;;;23.00;55.50;;;;;;4982058;28;20147;-34
2022/09/19 12:34:29;;;;;;;0.20;0.17;;;23.00;55.60;;;;;;4979206;28;20055;-35
2022/09/19 12:37:04;;;;;;;0.10;0.10;;;23.00;55.70;;;;;;4978320;28;20077;-33
2022/09/19 12:39:49;;;;;;;0.20;0.20;;;23.00;55.70;;;;;;4976360;28;20107;-35
2022/09/19 12:42:29;;;;;;;1.38;0.10;;;23.00;55.80;;;;;;4977064;28;20053;-36
2022/09/19 12:45:24;;;;;;;0.28;0.28;;;23.00;55.80;;;;;;4998138;28;20051;-32
2022/09/19 12:48:24;;;;;;;0.20;0.20;;;23.00;55.80;;;;;;4979721;28;20062;-36
2022/09/19 12:50:50;;;;;;;1.80;0.25;;;23.00;55.90;;;;;;4981959;28;20050;-36
2022/09/19 12:53:33;;;;;;;0.40;0.40;;;23.00;55.90;;;;;;4982632;28;20512;-37
2022/09/19 12:56:21;;;;;;;0.40;0.30;;;23.00;55.90;;;;;;4984558;28;20046;-34
2022/09/19 12:58:58;;;;;;;0.50;0.47;;;23.00;55.90;;;;;;4979968;28;20055;-16
2022/09/19 13:01:40;;;;;;;0.95;0.95;;;23.00;55.90;;;;;;4984803;28;20142;-14
2022/09/19 13:04:25;;;;;;;1.42;1.23;;;23.10;55.80;;;;;;4983947;28;20050;-15
2022/09/19 13:06:52;;;;;;;1.60;1.50;;;23.10;55.90;;;;;;4990405;28;20530;-15
2022/09/19 13:09:24;;;;;;;1.70;1.60;;;23.10;56.00;;;;;;4979515;28;20053;-15
2022/09/19 13:12:11;;;;;;;1.70;1.60;;;23.10;55.90;;;;;;4992336;28;20046;-15
2022/09/19 13:14:53;;;;;;;4.13;2.05;;;23.10;55.90;;;;;;4969129;28;20087;-16
2022/09/19 13:25:44;;;;;;;2.40;2.20;;;23.10;55.50;;;;;;4985103;28;20164;-15
2022/09/19 13:28:21;;;;;;;2.30;1.92;;;23.10;55.60;;;;;;4982945;28;20125;-15
2022/09/19 13:30:53;;;;;;;2.25;2.05;;;23.10;55.20;;;;;;4984460;28;20508;-16